sensor_id;sensor_type;location;lat;lon;timestamp;P1;durP1;ratioP1;P2;durP2;ratioP2
78013;SDS011;67222;50.182;8.734;2023-11-21T05:32:00;12.52;;;5.05;;
78013;SDS011;67222;50.182;8.734;2023-11-21T05:34:25;10.23;;;4.95;;
78013;SDS011;67222;50.182;8.734;2023-11-21T05:36:51;12.70;;;5.00;;
78013;SDS011;67222;50.182;8.734;2023-11-21T05:39:16;12.97;;;5.57;;
78013;SDS011;67222;50.182;8.734;2023-11-21T05:41:45;11.35;;;5.35;;
78013;SDS011;67222;50.182;8.734;2023-11-21T05:44:11;12.25;;;5.00;;
78013;SDS011;67222;50.182;8.734;2023-11-21T05:46:39;10.38;;;5.22;;
78013;SDS011;67222;50.182;8.734;2023-11-21T05:49:05;11.68;;;5.57;;
78013;SDS011;67222;50.182;8.734;2023-11-21T05:51:31;12.35;;;5.32;;
78013;SDS011;67222;50.182;8.734;2023-11-21T05:53:56;13.10;;;5.37;;
78013;SDS011;67222;50.182;8.734;2023-11-21T05:56:21;13.15;;;5.90;;
78013;SDS011;67222;50.182;8.734;2023-11-21T05:58:46;13.50;;;5.87;;
78013;SDS011;67222;50.182;8.734;2023-11-21T06:01:12;11.57;;;5.70;;
78013;SDS011;67222;50.182;8.734;2023-11-21T06:03:38;11.45;;;4.97;;
78013;SDS011;67222;50.182;8.734;2023-11-21T06:06:03;16.13;;;5.18;;
78013;SDS011;67222;50.182;8.734;2023-11-21T06:08:29;12.13;;;5.50;;
78013;SDS011;67222;50.182;8.734;2023-11-21T06:10:54;13.38;;;5.38;;
78013;SDS011;67222;50.182;8.734;2023-11-21T06:13:20;9.38;;;4.75;;
78013;SDS011;67222;50.182;8.734;2023-11-21T06:15:49;9.23;;;4.53;;
78013;SDS011;67222;50.182;8.734;2023-11-21T06:18:15;8.30;;;3.38;;
78013;SDS011;67222;50.182;8.734;2023-11-21T06:20:40;7.00;;;2.78;;
78013;SDS011;67222;50.182;8.734;2023-11-21T06:23:05;5.33;;;2.20;;
78013;SDS011;67222;50.182;8.734;2023-11-21T06:25:31;4.80;;;1.85;;
78013;SDS011;67222;50.182;8.734;2023-11-21T06:28:01;4.25;;;1.80;;
78013;SDS011;67222;50.182;8.734;2023-11-21T06:30:26;3.40;;;1.73;;
78013;SDS011;67222;50.182;8.734;2023-11-21T06:32:51;3.70;;;1.97;;
78013;SDS011;67222;50.182;8.734;2023-11-21T06:35:17;5.63;;;1.90;;
78013;SDS011;67222;50.182;8.734;2023-11-21T06:37:42;3.73;;;2.10;;
78013;SDS011;67222;50.182;8.734;2023-11-21T06:40:12;4.07;;;2.28;;
78013;SDS011;67222;50.182;8.734;2023-11-21T06:42:40;5.88;;;2.38;;
78013;SDS011;67222;50.182;8.734;2023-11-21T06:45:06;6.40;;;2.67;;
78013;SDS011;67222;50.182;8.734;2023-11-21T06:47:32;5.80;;;2.58;;
78013;SDS011;67222;50.182;8.734;2023-11-21T06:49:58;6.32;;;2.95;;
78013;SDS011;67222;50.182;8.734;2023-11-21T06:52:24;6.05;;;3.25;;
78013;SDS011;67222;50.182;8.734;2023-11-21T06:54:49;8.55;;;3.65;;
78013;SDS011;67222;50.182;8.734;2023-11-21T06:57:14;7.72;;;3.90;;
78013;SDS011;67222;50.182;8.734;2023-11-21T06:59:40;8.20;;;3.92;;
78013;SDS011;67222;50.182;8.734;2023-11-21T07:02:05;7.78;;;3.90;;
78013;SDS011;67222;50.182;8.734;2023-11-21T07:06:59;8.65;;;4.15;;
78013;SDS011;67222;50.182;8.734;2023-11-21T07:09:25;7.43;;;3.90;;
78013;SDS011;67222;50.182;8.734;2023-11-21T07:11:53;9.70;;;4.32;;
78013;SDS011;67222;50.182;8.734;2023-11-21T07:16:45;8.35;;;3.90;;
78013;SDS011;67222;50.182;8.734;2023-11-21T07:19:10;7.18;;;3.78;;
78013;SDS011;67222;50.182;8.734;2023-11-21T07:21:37;9.43;;;4.15;;
78013;SDS011;67222;50.182;8.734;2023-11-21T07:24:03;9.35;;;4.47;;
78013;SDS011;67222;50.182;8.734;2023-11-21T07:26:29;8.07;;;4.43;;
78013;SDS011;67222;50.182;8.734;2023-11-21T07:28:55;9.05;;;4.22;;
78013;SDS011;67222;50.182;8.734;2023-11-21T07:31:23;10.32;;;4.82;;
78013;SDS011;67222;50.182;8.734;2023-11-21T07:33:49;7.40;;;3.80;;
78013;SDS011;67222;50.182;8.734;2023-11-21T07:36:15;10.23;;;4.40;;
78013;SDS011;67222;50.182;8.734;2023-11-21T07:38:43;8.43;;;4.28;;
78013;SDS011;67222;50.182;8.734;2023-11-21T07:41:09;10.50;;;4.40;;
78013;SDS011;67222;50.182;8.734;2023-11-21T07:43:35;9.07;;;4.45;;
78013;SDS011;67222;50.182;8.734;2023-11-21T07:46:01;9.13;;;5.03;;
78013;SDS011;67222;50.182;8.734;2023-11-21T07:48:30;9.52;;;4.68;;
78013;SDS011;67222;50.182;8.734;2023-11-21T07:50:56;10.02;;;4.90;;
78013;SDS011;67222;50.182;8.734;2023-11-21T07:53:23;10.20;;;4.65;;
78013;SDS011;67222;50.182;8.734;2023-11-21T07:55:50;10.65;;;5.15;;
78013;SDS011;67222;50.182;8.734;2023-11-21T07:58:15;11.80;;;5.40;;
78013;SDS011;67222;50.182;8.734;2023-11-21T08:00:41;10.03;;;4.87;;
78013;SDS011;67222;50.182;8.734;2023-11-21T08:03:07;12.27;;;5.70;;
78013;SDS011;67222;50.182;8.734;2023-11-21T08:05:32;12.33;;;5.70;;
78013;SDS011;67222;50.182;8.734;2023-11-21T08:07:57;10.40;;;5.23;;
78013;SDS011;67222;50.182;8.734;2023-11-21T08:10:23;11.23;;;5.33;;
78013;SDS011;67222;50.182;8.734;2023-11-21T08:12:48;13.57;;;5.40;;
78013;SDS011;67222;50.182;8.734;2023-11-21T08:15:15;10.43;;;4.78;;
78013;SDS011;67222;50.182;8.734;2023-11-21T08:17:40;9.93;;;4.80;;
78013;SDS011;67222;50.182;8.734;2023-11-21T08:20:06;11.97;;;5.00;;
78013;SDS011;67222;50.182;8.734;2023-11-21T08:22:33;10.43;;;4.93;;
78013;SDS011;67222;50.182;8.734;2023-11-21T08:24:59;11.32;;;5.47;;
78013;SDS011;67222;50.182;8.734;2023-11-21T08:27:24;9.70;;;4.38;;
78013;SDS011;67222;50.182;8.734;2023-11-21T08:29:50;10.18;;;4.53;;
78013;SDS011;67222;50.182;8.734;2023-11-21T08:32:17;10.82;;;4.80;;
78013;SDS011;67222;50.182;8.734;2023-11-21T08:34:42;9.15;;;4.50;;
78013;SDS011;67222;50.182;8.734;2023-11-21T08:37:09;10.30;;;4.85;;
78013;SDS011;67222;50.182;8.734;2023-11-21T08:39:36;12.13;;;4.85;;
78013;SDS011;67222;50.182;8.734;2023-11-21T08:42:02;7.72;;;4.05;;
78013;SDS011;67222;50.182;8.734;2023-11-21T08:44:28;8.98;;;4.05;;
78013;SDS011;67222;50.182;8.734;2023-11-21T08:46:53;10.47;;;4.10;;
78013;SDS011;67222;50.182;8.734;2023-11-21T08:49:18;11.30;;;5.20;;
78013;SDS011;67222;50.182;8.734;2023-11-21T08:51:44;9.20;;;4.80;;
78013;SDS011;67222;50.182;8.734;2023-11-21T08:54:09;10.13;;;4.38;;
78013;SDS011;67222;50.182;8.734;2023-11-21T08:56:36;9.68;;;4.15;;
78013;SDS011;67222;50.182;8.734;2023-11-21T08:59:02;8.43;;;4.65;;
78013;SDS011;67222;50.182;8.734;2023-11-21T09:01:28;8.27;;;4.25;;
78013;SDS011;67222;50.182;8.734;2023-11-21T09:03:56;11.57;;;4.38;;
78013;SDS011;67222;50.182;8.734;2023-11-21T09:06:22;10.05;;;3.83;;
78013;SDS011;67222;50.182;8.734;2023-11-21T09:08:47;7.47;;;3.63;;
78013;SDS011;67222;50.182;8.734;2023-11-21T09:11:13;7.13;;;3.87;;
78013;SDS011;67222;50.182;8.734;2023-11-21T09:13:38;9.25;;;3.97;;
78013;SDS011;67222;50.182;8.734;2023-11-21T09:16:04;8.23;;;3.72;;
78013;SDS011;67222;50.182;8.734;2023-11-21T09:18:30;8.82;;;4.03;;
78013;SDS011;67222;50.182;8.734;2023-11-21T09:20:56;9.15;;;4.15;;
78013;SDS011;67222;50.182;8.734;2023-11-21T09:23:21;9.10;;;3.87;;
78013;SDS011;67222;50.182;8.734;2023-11-21T09:25:46;8.63;;;3.83;;
78013;SDS011;67222;50.182;8.734;2023-11-21T09:28:14;7.63;;;3.38;;
78013;SDS011;67222;50.182;8.734;2023-11-21T09:30:40;7.60;;;3.65;;
78013;SDS011;67222;50.182;8.734;2023-11-21T09:33:05;11.30;;;4.60;;
78013;SDS011;67222;50.182;8.734;2023-11-21T09:35:31;10.82;;;5.13;;
78013;SDS011;67222;50.182;8.734;2023-11-21T09:37:57;13.25;;;5.03;;
78013;SDS011;67222;50.182;8.734;2023-11-21T09:40:22;12.50;;;4.73;;
78013;SDS011;67222;50.182;8.734;2023-11-21T09:42:50;13.80;;;5.03;;
78013;SDS011;67222;50.182;8.734;2023-11-21T09:45:25;11.60;;;5.32;;
78013;SDS011;67222;50.182;8.734;2023-11-21T09:47:53;12.35;;;6.00;;
78013;SDS011;67222;50.182;8.734;2023-11-21T09:50:20;9.88;;;5.00;;
78013;SDS011;67222;50.182;8.734;2023-11-21T09:53:32;9.20;;;4.50;;
78013;SDS011;67222;50.182;8.734;2023-11-21T09:55:43;6.95;;;3.42;;
78013;SDS011;67222;50.182;8.734;2023-11-21T09:58:09;10.63;;;5.50;;
78013;SDS011;67222;50.182;8.734;2023-11-21T10:00:38;10.63;;;4.53;;
78013;SDS011;67222;50.182;8.734;2023-11-21T10:03:05;8.18;;;4.22;;
78013;SDS011;67222;50.182;8.734;2023-11-21T10:05:31;8.07;;;4.30;;
78013;SDS011;67222;50.182;8.734;2023-11-21T10:07:59;7.90;;;3.33;;
78013;SDS011;67222;50.182;8.734;2023-11-21T10:10:24;5.35;;;2.88;;
78013;SDS011;67222;50.182;8.734;2023-11-21T10:12:51;5.03;;;2.55;;
78013;SDS011;67222;50.182;8.734;2023-11-21T10:15:21;6.65;;;3.17;;
78013;SDS011;67222;50.182;8.734;2023-11-21T10:17:48;7.38;;;3.22;;
78013;SDS011;67222;50.182;8.734;2023-11-21T10:20:14;11.68;;;3.88;;
78013;SDS011;67222;50.182;8.734;2023-11-21T10:22:40;4.80;;;2.58;;
78013;SDS011;67222;50.182;8.734;2023-11-21T10:25:07;6.70;;;2.97;;
78013;SDS011;67222;50.182;8.734;2023-11-21T10:27:34;6.35;;;3.20;;
78013;SDS011;67222;50.182;8.734;2023-11-21T10:30:01;6.95;;;3.22;;
78013;SDS011;67222;50.182;8.734;2023-11-21T10:32:28;6.47;;;3.42;;
78013;SDS011;67222;50.182;8.734;2023-11-21T10:34:57;6.57;;;3.10;;
78013;SDS011;67222;50.182;8.734;2023-11-21T10:37:22;8.10;;;3.88;;
78013;SDS011;67222;50.182;8.734;2023-11-21T10:39:48;8.77;;;3.72;;
78013;SDS011;67222;50.182;8.734;2023-11-21T10:42:13;7.63;;;3.47;;
78013;SDS011;67222;50.182;8.734;2023-11-21T10:44:41;6.73;;;3.47;;
78013;SDS011;67222;50.182;8.734;2023-11-21T10:47:08;7.13;;;3.55;;
78013;SDS011;67222;50.182;8.734;2023-11-21T10:49:33;7.00;;;3.45;;
78013;SDS011;67222;50.182;8.734;2023-11-21T10:51:59;7.40;;;3.30;;
78013;SDS011;67222;50.182;8.734;2023-11-21T10:54:25;7.30;;;3.53;;
78013;SDS011;67222;50.182;8.734;2023-11-21T10:56:58;9.55;;;4.00;;
78013;SDS011;67222;50.182;8.734;2023-11-21T10:59:26;7.30;;;3.13;;
78013;SDS011;67222;50.182;8.734;2023-11-21T11:01:54;12.80;;;3.90;;
78013;SDS011;67222;50.182;8.734;2023-11-21T11:04:22;6.63;;;3.50;;
78013;SDS011;67222;50.182;8.734;2023-11-21T11:06:51;6.57;;;3.30;;
78013;SDS011;67222;50.182;8.734;2023-11-21T11:09:21;7.70;;;3.63;;
78013;SDS011;67222;50.182;8.734;2023-11-21T11:11:47;7.57;;;3.55;;
78013;SDS011;67222;50.182;8.734;2023-11-21T11:14:13;8.10;;;3.35;;
78013;SDS011;67222;50.182;8.734;2023-11-21T11:16:39;8.05;;;3.15;;
78013;SDS011;67222;50.182;8.734;2023-11-21T11:19:08;5.95;;;3.10;;
78013;SDS011;67222;50.182;8.734;2023-11-21T11:27:09;6.72;;;3.30;;
78013;SDS011;67222;50.182;8.734;2023-11-21T11:29:52;7.85;;;3.63;;
78013;SDS011;67222;50.182;8.734;2023-11-21T11:32:48;8.75;;;3.70;;
78013;SDS011;67222;50.182;8.734;2023-11-21T11:35:18;6.30;;;3.20;;
78013;SDS011;67222;50.182;8.734;2023-11-21T11:37:51;5.93;;;2.90;;
78013;SDS011;67222;50.182;8.734;2023-11-21T11:40:17;7.72;;;3.75;;
78013;SDS011;67222;50.182;8.734;2023-11-21T11:42:57;7.28;;;3.70;;
78013;SDS011;67222;50.182;8.734;2023-11-21T11:45:31;6.47;;;3.22;;
78013;SDS011;67222;50.182;8.734;2023-11-21T11:47:58;8.07;;;3.65;;
78013;SDS011;67222;50.182;8.734;2023-11-21T11:50:25;6.72;;;3.65;;
78013;SDS011;67222;50.182;8.734;2023-11-21T11:52:54;8.48;;;3.40;;
78013;SDS011;67222;50.182;8.734;2023-11-21T11:55:23;6.82;;;3.63;;
78013;SDS011;67222;50.182;8.734;2023-11-21T11:57:51;8.13;;;3.20;;
78013;SDS011;67222;50.182;8.734;2023-11-21T12:00:21;6.97;;;3.15;;
78013;SDS011;67222;50.182;8.734;2023-11-21T12:03:07;8.38;;;3.45;;
78013;SDS011;67222;50.182;8.734;2023-11-21T12:05:34;11.05;;;3.63;;
78013;SDS011;67222;50.182;8.734;2023-11-21T12:08:04;6.68;;;2.67;;
78013;SDS011;67222;50.182;8.734;2023-11-21T12:10:32;5.75;;;3.10;;
78013;SDS011;67222;50.182;8.734;2023-11-21T12:13:19;9.48;;;3.40;;
78013;SDS011;67222;50.182;8.734;2023-11-21T12:15:44;5.47;;;2.90;;
78013;SDS011;67222;50.182;8.734;2023-11-21T12:18:10;6.47;;;3.03;;
78013;SDS011;67222;50.182;8.734;2023-11-21T12:20:36;5.90;;;2.58;;
78013;SDS011;67222;50.182;8.734;2023-11-21T12:23:03;6.10;;;2.63;;
78013;SDS011;67222;50.182;8.734;2023-11-21T12:25:30;7.95;;;4.03;;
78013;SDS011;67222;50.182;8.734;2023-11-21T12:28:00;6.40;;;3.10;;
78013;SDS011;67222;50.182;8.734;2023-11-21T12:30:28;6.32;;;3.10;;
78013;SDS011;67222;50.182;8.734;2023-11-21T12:32:58;6.43;;;3.20;;
78013;SDS011;67222;50.182;8.734;2023-11-21T12:35:26;8.90;;;3.05;;
78013;SDS011;67222;50.182;8.734;2023-11-21T12:37:55;7.85;;;3.35;;
78013;SDS011;67222;50.182;8.734;2023-11-21T12:40:24;6.18;;;3.30;;
78013;SDS011;67222;50.182;8.734;2023-11-21T12:42:57;7.80;;;3.22;;
78013;SDS011;67222;50.182;8.734;2023-11-21T12:45:27;6.93;;;2.80;;
78013;SDS011;67222;50.182;8.734;2023-11-21T12:47:58;8.85;;;3.45;;
78013;SDS011;67222;50.182;8.734;2023-11-21T12:50:28;7.10;;;3.50;;
78013;SDS011;67222;50.182;8.734;2023-11-21T12:55:30;5.78;;;3.35;;
78013;SDS011;67222;50.182;8.734;2023-11-21T12:57:57;5.55;;;3.10;;
78013;SDS011;67222;50.182;8.734;2023-11-21T13:00:31;6.65;;;2.88;;
78013;SDS011;67222;50.182;8.734;2023-11-21T13:02:58;4.28;;;2.20;;
78013;SDS011;67222;50.182;8.734;2023-11-21T13:05:28;5.93;;;2.70;;
78013;SDS011;67222;50.182;8.734;2023-11-21T13:07:59;5.50;;;2.15;;
78013;SDS011;67222;50.182;8.734;2023-11-21T13:10:28;6.22;;;2.30;;
78013;SDS011;67222;50.182;8.734;2023-11-21T13:12:58;5.25;;;2.78;;
78013;SDS011;67222;50.182;8.734;2023-11-21T13:15:25;5.47;;;2.75;;
78013;SDS011;67222;50.182;8.734;2023-11-21T13:17:56;7.47;;;2.95;;
78013;SDS011;67222;50.182;8.734;2023-11-21T13:20:23;5.30;;;2.70;;
78013;SDS011;67222;50.182;8.734;2023-11-21T13:22:53;7.50;;;3.10;;
78013;SDS011;67222;50.182;8.734;2023-11-21T13:25:22;7.18;;;2.75;;
78013;SDS011;67222;50.182;8.734;2023-11-21T13:27:52;5.95;;;2.42;;
78013;SDS011;67222;50.182;8.734;2023-11-21T13:30:21;5.68;;;2.50;;
78013;SDS011;67222;50.182;8.734;2023-11-21T13:32:58;7.03;;;2.78;;
78013;SDS011;67222;50.182;8.734;2023-11-21T13:35:29;5.78;;;2.90;;
78013;SDS011;67222;50.182;8.734;2023-11-21T13:38:06;8.00;;;3.15;;
78013;SDS011;67222;50.182;8.734;2023-11-21T13:40:33;6.68;;;2.72;;
78013;SDS011;67222;50.182;8.734;2023-11-21T13:43:04;6.20;;;3.30;;
78013;SDS011;67222;50.182;8.734;2023-11-21T13:45:34;7.22;;;2.80;;
78013;SDS011;67222;50.182;8.734;2023-11-21T13:48:00;5.40;;;2.85;;
78013;SDS011;67222;50.182;8.734;2023-11-21T13:50:26;7.47;;;3.23;;
78013;SDS011;67222;50.182;8.734;2023-11-21T13:53:00;6.75;;;3.28;;
78013;SDS011;67222;50.182;8.734;2023-11-21T13:55:33;7.97;;;3.33;;
78013;SDS011;67222;50.182;8.734;2023-11-21T13:58:00;6.43;;;2.58;;
78013;SDS011;67222;50.182;8.734;2023-11-21T14:00:27;7.07;;;3.80;;
78013;SDS011;67222;50.182;8.734;2023-11-21T14:03:11;6.28;;;2.90;;
78013;SDS011;67222;50.182;8.734;2023-11-21T14:05:47;6.10;;;3.00;;
78013;SDS011;67222;50.182;8.734;2023-11-21T14:08:16;7.85;;;2.80;;
78013;SDS011;67222;50.182;8.734;2023-11-21T14:10:45;7.25;;;3.15;;
78013;SDS011;67222;50.182;8.734;2023-11-21T14:13:15;8.20;;;3.40;;
78013;SDS011;67222;50.182;8.734;2023-11-21T14:15:42;7.60;;;3.30;;
78013;SDS011;67222;50.182;8.734;2023-11-21T14:18:10;7.40;;;3.35;;
78013;SDS011;67222;50.182;8.734;2023-11-21T14:20:37;6.95;;;3.53;;
78013;SDS011;67222;50.182;8.734;2023-11-21T14:23:03;8.57;;;3.88;;
78013;SDS011;67222;50.182;8.734;2023-11-21T14:25:32;6.75;;;3.47;;
78013;SDS011;67222;50.182;8.734;2023-11-21T14:27:58;9.93;;;4.05;;
78013;SDS011;67222;50.182;8.734;2023-11-21T14:30:24;8.48;;;3.60;;
78013;SDS011;67222;50.182;8.734;2023-11-21T14:32:50;7.30;;;3.45;;
78013;SDS011;67222;50.182;8.734;2023-11-21T14:35:16;7.90;;;4.07;;
78013;SDS011;67222;50.182;8.734;2023-11-21T14:37:42;6.65;;;3.35;;
78013;SDS011;67222;50.182;8.734;2023-11-21T14:40:08;8.43;;;3.90;;
78013;SDS011;67222;50.182;8.734;2023-11-21T14:42:34;10.95;;;4.00;;
78013;SDS011;67222;50.182;8.734;2023-11-21T14:45:02;8.57;;;3.88;;
78013;SDS011;67222;50.182;8.734;2023-11-21T14:47:31;9.45;;;4.25;;
78013;SDS011;67222;50.182;8.734;2023-11-21T14:49:57;8.63;;;4.35;;
78013;SDS011;67222;50.182;8.734;2023-11-21T14:52:24;9.38;;;3.88;;
78013;SDS011;67222;50.182;8.734;2023-11-21T14:55:02;7.60;;;3.92;;
78013;SDS011;67222;50.182;8.734;2023-11-21T14:57:47;10.60;;;4.25;;
78013;SDS011;67222;50.182;8.734;2023-11-21T15:00:19;9.13;;;4.25;;
78013;SDS011;67222;50.182;8.734;2023-11-21T15:03:00;9.05;;;4.05;;
78013;SDS011;67222;50.182;8.734;2023-11-21T15:05:29;8.13;;;4.40;;
78013;SDS011;67222;50.182;8.734;2023-11-21T15:07:55;9.32;;;4.32;;
78013;SDS011;67222;50.182;8.734;2023-11-21T15:10:23;9.90;;;3.90;;
78013;SDS011;67222;50.182;8.734;2023-11-21T15:13:03;10.13;;;4.43;;
78013;SDS011;67222;50.182;8.734;2023-11-21T15:15:29;8.15;;;4.03;;
78013;SDS011;67222;50.182;8.734;2023-11-21T15:17:56;9.48;;;4.20;;
78013;SDS011;67222;50.182;8.734;2023-11-21T15:20:22;8.43;;;4.10;;
78013;SDS011;67222;50.182;8.734;2023-11-21T15:22:47;8.27;;;3.92;;
78013;SDS011;67222;50.182;8.734;2023-11-21T15:25:13;8.88;;;4.18;;
78013;SDS011;67222;50.182;8.734;2023-11-21T15:27:38;11.48;;;4.30;;
78013;SDS011;67222;50.182;8.734;2023-11-21T15:30:04;9.45;;;3.65;;
78013;SDS011;67222;50.182;8.734;2023-11-21T15:32:30;7.80;;;3.90;;
78013;SDS011;67222;50.182;8.734;2023-11-21T15:34:55;8.80;;;3.97;;
78013;SDS011;67222;50.182;8.734;2023-11-21T15:37:21;10.73;;;4.27;;
78013;SDS011;67222;50.182;8.734;2023-11-21T15:39:46;8.75;;;4.15;;
78013;SDS011;67222;50.182;8.734;2023-11-21T15:42:11;9.02;;;4.28;;
78013;SDS011;67222;50.182;8.734;2023-11-21T15:44:37;8.63;;;3.88;;
78013;SDS011;67222;50.182;8.734;2023-11-21T15:47:03;7.65;;;3.67;;
78013;SDS011;67222;50.182;8.734;2023-11-21T15:49:29;7.63;;;3.60;;
78013;SDS011;67222;50.182;8.734;2023-11-21T15:51:59;6.65;;;3.10;;
78013;SDS011;67222;50.182;8.734;2023-11-21T15:54:25;8.00;;;3.70;;
78013;SDS011;67222;50.182;8.734;2023-11-21T15:56:51;7.70;;;3.70;;
78013;SDS011;67222;50.182;8.734;2023-11-21T15:59:20;5.90;;;3.50;;
78013;SDS011;67222;50.182;8.734;2023-11-21T16:01:45;8.63;;;4.57;;
78013;SDS011;67222;50.182;8.734;2023-11-21T16:04:13;6.95;;;3.22;;
78013;SDS011;67222;50.182;8.734;2023-11-21T16:06:45;6.40;;;3.10;;
78013;SDS011;67222;50.182;8.734;2023-11-21T16:09:12;7.40;;;3.38;;
78013;SDS011;67222;50.182;8.734;2023-11-21T16:11:47;6.28;;;3.03;;
78013;SDS011;67222;50.182;8.734;2023-11-21T16:14:18;10.40;;;3.17;;
78013;SDS011;67222;50.182;8.734;2023-11-21T16:16:49;7.43;;;3.35;;
78013;SDS011;67222;50.182;8.734;2023-11-21T16:19:14;5.88;;;2.85;;
78013;SDS011;67222;50.182;8.734;2023-11-21T16:21:40;6.82;;;3.10;;
78013;SDS011;67222;50.182;8.734;2023-11-21T16:24:05;6.10;;;2.40;;
78013;SDS011;67222;50.182;8.734;2023-11-21T16:26:31;6.50;;;3.22;;
78013;SDS011;67222;50.182;8.734;2023-11-21T16:28:57;6.63;;;2.83;;
78013;SDS011;67222;50.182;8.734;2023-11-21T16:31:23;7.03;;;3.00;;
78013;SDS011;67222;50.182;8.734;2023-11-21T16:33:48;5.47;;;2.83;;
78013;SDS011;67222;50.182;8.734;2023-11-21T16:36:14;5.55;;;2.63;;
78013;SDS011;67222;50.182;8.734;2023-11-21T16:38:39;6.07;;;2.67;;
78013;SDS011;67222;50.182;8.734;2023-11-21T16:41:04;5.25;;;2.80;;
78013;SDS011;67222;50.182;8.734;2023-11-21T16:43:30;5.97;;;2.60;;
78013;SDS011;67222;50.182;8.734;2023-11-21T16:45:55;8.25;;;2.97;;
78013;SDS011;67222;50.182;8.734;2023-11-21T16:48:21;6.30;;;3.20;;
78013;SDS011;67222;50.182;8.734;2023-11-21T16:50:46;8.97;;;3.23;;
78013;SDS011;67222;50.182;8.734;2023-11-21T16:53:11;7.43;;;3.70;;
78013;SDS011;67222;50.182;8.734;2023-11-21T16:55:37;9.57;;;3.58;;
78013;SDS011;67222;50.182;8.734;2023-11-21T16:58:02;10.57;;;4.00;;
78013;SDS011;67222;50.182;8.734;2023-11-21T17:00:27;8.73;;;4.13;;
78013;SDS011;67222;50.182;8.734;2023-11-21T17:02:53;7.50;;;3.70;;
78013;SDS011;67222;50.182;8.734;2023-11-21T17:05:18;6.68;;;3.33;;
78013;SDS011;67222;50.182;8.734;2023-11-21T17:07:46;9.55;;;3.90;;
78013;SDS011;67222;50.182;8.734;2023-11-21T17:10:12;9.63;;;3.40;;
78013;SDS011;67222;50.182;8.734;2023-11-21T17:12:38;9.85;;;3.92;;
78013;SDS011;67222;50.182;8.734;2023-11-21T17:15:04;6.68;;;3.15;;
78013;SDS011;67222;50.182;8.734;2023-11-21T17:17:30;6.45;;;3.40;;
78013;SDS011;67222;50.182;8.734;2023-11-21T17:19:56;6.68;;;3.28;;
78013;SDS011;67222;50.182;8.734;2023-11-21T17:22:22;6.63;;;3.25;;
78013;SDS011;67222;50.182;8.734;2023-11-21T17:24:47;7.75;;;3.53;;
78013;SDS011;67222;50.182;8.734;2023-11-21T17:27:13;8.50;;;3.43;;
78013;SDS011;67222;50.182;8.734;2023-11-21T17:29:38;8.65;;;3.58;;
78013;SDS011;67222;50.182;8.734;2023-11-21T17:32:04;8.90;;;3.40;;
78013;SDS011;67222;50.182;8.734;2023-11-21T17:34:29;8.48;;;3.78;;
78013;SDS011;67222;50.182;8.734;2023-11-21T17:36:55;8.13;;;3.53;;
78013;SDS011;67222;50.182;8.734;2023-11-21T17:39:20;8.38;;;3.42;;
78013;SDS011;67222;50.182;8.734;2023-11-21T17:41:46;7.13;;;3.20;;
78013;SDS011;67222;50.182;8.734;2023-11-21T17:44:11;7.30;;;3.33;;
78013;SDS011;67222;50.182;8.734;2023-11-21T17:46:37;9.60;;;4.22;;
78013;SDS011;67222;50.182;8.734;2023-11-21T17:49:03;8.05;;;3.75;;
78013;SDS011;67222;50.182;8.734;2023-11-21T17:51:29;7.30;;;4.13;;
78013;SDS011;67222;50.182;8.734;2023-11-21T17:53:55;7.53;;;3.95;;
78013;SDS011;67222;50.182;8.734;2023-11-21T17:56:26;8.55;;;3.53;;
78013;SDS011;67222;50.182;8.734;2023-11-21T17:58:51;10.15;;;3.90;;
78013;SDS011;67222;50.182;8.734;2023-11-21T18:01:19;6.63;;;3.30;;
78013;SDS011;67222;50.182;8.734;2023-11-21T18:03:45;6.85;;;3.03;;
78013;SDS011;67222;50.182;8.734;2023-11-21T18:06:11;5.53;;;3.45;;
78013;SDS011;67222;50.182;8.734;2023-11-21T18:08:38;6.38;;;3.10;;
78013;SDS011;67222;50.182;8.734;2023-11-21T18:11:05;5.57;;;3.00;;
78013;SDS011;67222;50.182;8.734;2023-11-21T18:13:30;6.13;;;2.50;;
78013;SDS011;67222;50.182;8.734;2023-11-21T18:15:56;4.32;;;2.17;;
78013;SDS011;67222;50.182;8.734;2023-11-21T18:18:21;4.37;;;2.30;;
78013;SDS011;67222;50.182;8.734;2023-11-21T18:20:47;4.03;;;2.22;;
78013;SDS011;67222;50.182;8.734;2023-11-21T18:23:12;4.47;;;2.42;;
78013;SDS011;67222;50.182;8.734;2023-11-21T18:25:38;3.80;;;2.10;;
78013;SDS011;67222;50.182;8.734;2023-11-21T18:28:06;4.60;;;2.33;;
78013;SDS011;67222;50.182;8.734;2023-11-21T18:30:33;2.97;;;1.70;;
78013;SDS011;67222;50.182;8.734;2023-11-21T18:32:58;4.78;;;2.20;;
78013;SDS011;67222;50.182;8.734;2023-11-21T18:35:24;3.97;;;2.17;;
78013;SDS011;67222;50.182;8.734;2023-11-21T18:37:49;3.78;;;2.03;;
78013;SDS011;67222;50.182;8.734;2023-11-21T18:40:15;3.90;;;2.13;;
78013;SDS011;67222;50.182;8.734;2023-11-21T18:42:41;4.57;;;2.50;;
78013;SDS011;67222;50.182;8.734;2023-11-21T18:45:09;4.40;;;2.08;;
78013;SDS011;67222;50.182;8.734;2023-11-21T18:47:35;3.22;;;2.10;;
78013;SDS011;67222;50.182;8.734;2023-11-21T18:50:00;4.45;;;2.42;;
78013;SDS011;67222;50.182;8.734;2023-11-21T18:52:26;5.43;;;3.27;;
78013;SDS011;67222;50.182;8.734;2023-11-21T18:54:52;5.63;;;2.45;;
78013;SDS011;67222;50.182;8.734;2023-11-21T18:57:18;5.32;;;2.58;;
78013;SDS011;67222;50.182;8.734;2023-11-21T18:59:44;4.70;;;2.70;;
78013;SDS011;67222;50.182;8.734;2023-11-21T19:02:09;5.35;;;2.92;;
78013;SDS011;67222;50.182;8.734;2023-11-21T19:04:38;5.03;;;2.95;;
78013;SDS011;67222;50.182;8.734;2023-11-21T19:07:04;5.78;;;3.00;;
78013;SDS011;67222;50.182;8.734;2023-11-21T19:09:30;6.47;;;3.30;;
78013;SDS011;67222;50.182;8.734;2023-11-21T19:11:58;4.35;;;2.47;;
78013;SDS011;67222;50.182;8.734;2023-11-21T19:14:24;6.60;;;3.05;;
78013;SDS011;67222;50.182;8.734;2023-11-21T19:16:50;5.20;;;2.67;;
78013;SDS011;67222;50.182;8.734;2023-11-21T19:19:15;6.85;;;3.38;;
78013;SDS011;67222;50.182;8.734;2023-11-21T19:21:42;5.88;;;3.03;;
78013;SDS011;67222;50.182;8.734;2023-11-21T19:24:08;6.82;;;3.22;;
78013;SDS011;67222;50.182;8.734;2023-11-21T19:26:33;5.40;;;2.70;;
78013;SDS011;67222;50.182;8.734;2023-11-21T19:29:02;6.18;;;2.80;;
78013;SDS011;67222;50.182;8.734;2023-11-21T19:31:29;5.70;;;3.35;;
78013;SDS011;67222;50.182;8.734;2023-11-21T19:33:55;4.47;;;2.73;;
78013;SDS011;67222;50.182;8.734;2023-11-21T19:36:20;6.78;;;3.00;;
78013;SDS011;67222;50.182;8.734;2023-11-21T19:38:46;6.00;;;3.28;;
78013;SDS011;67222;50.182;8.734;2023-11-21T19:41:13;5.97;;;3.03;;
78013;SDS011;67222;50.182;8.734;2023-11-21T19:43:40;6.95;;;3.03;;
78013;SDS011;67222;50.182;8.734;2023-11-21T19:46:05;7.20;;;3.00;;
78013;SDS011;67222;50.182;8.734;2023-11-21T19:48:31;7.30;;;3.45;;
78013;SDS011;67222;50.182;8.734;2023-11-21T19:50:57;7.47;;;3.20;;
78013;SDS011;67222;50.182;8.734;2023-11-21T19:53:22;6.30;;;3.33;;
78013;SDS011;67222;50.182;8.734;2023-11-21T19:55:49;5.30;;;3.08;;
78013;SDS011;67222;50.182;8.734;2023-11-21T19:58:14;5.35;;;2.75;;
78013;SDS011;67222;50.182;8.734;2023-11-21T20:00:43;5.60;;;2.92;;
78013;SDS011;67222;50.182;8.734;2023-11-21T20:03:09;6.65;;;3.33;;
78013;SDS011;67222;50.182;8.734;2023-11-21T20:05:34;7.77;;;3.47;;
78013;SDS011;67222;50.182;8.734;2023-11-21T20:08:00;7.93;;;3.30;;
78013;SDS011;67222;50.182;8.734;2023-11-21T20:10:25;6.13;;;3.20;;
78013;SDS011;67222;50.182;8.734;2023-11-21T20:12:50;5.95;;;3.10;;
78013;SDS011;67222;50.182;8.734;2023-11-21T20:15:16;8.32;;;3.30;;
78013;SDS011;67222;50.182;8.734;2023-11-21T20:17:41;6.95;;;3.45;;
78013;SDS011;67222;50.182;8.734;2023-11-21T20:20:09;7.70;;;3.28;;
78013;SDS011;67222;50.182;8.734;2023-11-21T20:22:40;5.22;;;2.78;;
78013;SDS011;67222;50.182;8.734;2023-11-21T20:25:06;6.50;;;3.50;;
78013;SDS011;67222;50.182;8.734;2023-11-21T20:27:33;6.70;;;3.53;;
78013;SDS011;67222;50.182;8.734;2023-11-21T20:29:59;5.78;;;3.15;;